createdAt,value
2019-05-06T00:00:25.292Z,5.70
2019-05-06T00:02:54.610Z,5.80
2019-05-06T00:05:25.522Z,5.70
2019-05-06T00:07:54.761Z,5.70
2019-05-06T00:10:26.710Z,5.70
2019-05-06T00:12:55.923Z,5.70
2019-05-06T00:15:24.523Z,5.60
2019-05-06T00:17:53.868Z,5.60
2019-05-06T00:20:24.267Z,5.60
2019-05-06T00:22:54.799Z,5.60
2019-05-06T00:25:31.053Z,5.60
2019-05-06T00:28:05.813Z,5.60
2019-05-06T00:30:34.549Z,5.50
2019-05-06T00:33:04.359Z,5.50
2019-05-06T00:35:34.292Z,5.50
2019-05-06T00:38:04.493Z,5.40
2019-05-06T00:40:43.705Z,5.40
2019-05-06T00:43:14.082Z,5.40
2019-05-06T00:45:44.321Z,5.40
2019-05-06T00:48:13.960Z,5.40
2019-05-06T00:50:44.137Z,5.40
2019-05-06T00:53:14.791Z,5.40
2019-05-06T00:55:44.580Z,5.40
2019-05-06T00:58:14.259Z,5.40
2019-05-06T01:00:44.302Z,5.40
2019-05-06T01:03:14.111Z,5.40
2019-05-06T01:05:44.415Z,5.40
2019-05-06T01:08:14.284Z,5.40
2019-05-06T01:10:44.819Z,5.30
2019-05-06T01:13:27.359Z,5.30
2019-05-06T01:15:55.833Z,5.30
2019-05-06T01:18:24.567Z,5.20
2019-05-06T01:20:55.065Z,5.20
2019-05-06T01:23:24.951Z,5.20
2019-05-06T01:25:54.589Z,5.20
2019-05-06T01:28:24.493Z,5.10
2019-05-06T01:30:53.535Z,5.00
2019-05-06T01:33:24.175Z,5.00
2019-05-06T01:35:54.220Z,5.00
2019-05-06T01:38:24.503Z,4.90
2019-05-06T01:40:58.051Z,4.90
2019-05-06T01:43:36.881Z,4.90
2019-05-06T01:46:05.763Z,4.90
2019-05-06T01:48:49.921Z,4.90
2019-05-06T01:51:24.160Z,4.90
2019-05-06T01:53:54.459Z,4.90
2019-05-06T01:56:24.187Z,4.90
2019-05-06T01:58:53.598Z,5.00
2019-05-06T02:01:24.872Z,5.00
2019-05-06T02:03:54.648Z,5.00
2019-05-06T02:06:24.967Z,5.00
2019-05-06T02:08:54.176Z,5.00
2019-05-06T02:11:24.111Z,5.00
2019-05-06T02:13:53.773Z,5.10
2019-05-06T02:16:24.090Z,5.10
2019-05-06T02:18:54.018Z,5.10
2019-05-06T02:21:26.406Z,5.10
2019-05-06T02:23:56.816Z,5.10
2019-05-06T02:26:26.995Z,5.10
2019-05-06T02:28:57.084Z,5.10
2019-05-06T02:31:45.983Z,5.10
2019-05-06T02:34:16.365Z,5.10
2019-05-06T02:36:49.295Z,5.10
2019-05-06T02:39:17.766Z,5.20
2019-05-06T02:41:46.284Z,5.20
2019-05-06T02:44:15.038Z,5.10
2019-05-06T02:46:45.454Z,5.10
2019-05-06T02:49:15.899Z,5.00
2019-05-06T02:51:44.692Z,5.00
2019-05-06T02:54:13.656Z,5.00
2019-05-06T02:56:43.634Z,5.00
2019-05-06T02:59:12.870Z,5.00
2019-05-06T03:01:43.261Z,5.00
2019-05-06T03:04:13.183Z,5.00
2019-05-06T03:06:44.695Z,4.90
2019-05-06T03:09:13.409Z,4.90
2019-05-06T03:11:43.864Z,4.90
2019-05-06T03:14:13.947Z,4.90
2019-05-06T03:16:44.106Z,4.90
2019-05-06T03:19:13.551Z,4.80
2019-05-06T03:21:45.602Z,4.80
2019-05-06T03:24:19.884Z,4.80
2019-05-06T03:26:56.207Z,4.80
2019-05-06T03:29:20.530Z,4.90
2019-05-06T03:31:49.073Z,4.80
2019-05-06T03:34:38.332Z,4.80
2019-05-06T03:36:48.882Z,4.80
2019-05-06T03:39:19.997Z,4.90
2019-05-06T03:41:48.250Z,4.90
2019-05-06T03:44:16.936Z,4.90
2019-05-06T03:47:05.917Z,4.90
2019-05-06T03:49:36.463Z,4.90
2019-05-06T03:52:05.357Z,5.00
2019-05-06T03:54:35.553Z,4.90
2019-05-06T03:57:05.558Z,4.90
2019-05-06T03:59:34.375Z,4.90
2019-05-06T04:02:05.422Z,4.80
2019-05-06T04:04:34.508Z,4.90
2019-05-06T04:07:04.118Z,4.80
2019-05-06T04:09:36.649Z,4.80
2019-05-06T04:12:04.041Z,4.90
2019-05-06T04:14:34.009Z,4.90
2019-05-06T04:17:16.859Z,4.90
2019-05-06T04:19:56.030Z,4.90
2019-05-06T04:22:26.221Z,4.90
2019-05-06T04:25:14.088Z,5.00
2019-05-06T04:27:44.599Z,5.00
2019-05-06T04:30:13.725Z,5.00
2019-05-06T04:32:43.450Z,5.10
2019-05-06T04:35:13.510Z,5.10
2019-05-06T04:37:43.202Z,5.10
2019-05-06T04:40:13.158Z,5.10
2019-05-06T04:42:44.411Z,5.10
2019-05-06T04:45:17.201Z,5.20
2019-05-06T04:47:43.607Z,5.20
2019-05-06T04:50:13.372Z,5.30
2019-05-06T04:52:43.706Z,5.30
2019-05-06T04:55:13.926Z,5.30
2019-05-06T04:57:44.135Z,5.40
2019-05-06T05:00:13.424Z,5.50
2019-05-06T05:02:45.855Z,5.50
2019-05-06T05:05:13.929Z,5.50
2019-05-06T05:07:43.302Z,5.50
2019-05-06T05:10:23.276Z,5.60
2019-05-06T05:13:05.967Z,5.60
2019-05-06T05:15:36.508Z,5.70
2019-05-06T05:18:13.070Z,5.80
2019-05-06T05:20:46.284Z,5.90
2019-05-06T05:23:14.436Z,5.90
2019-05-06T05:25:45.919Z,5.90
2019-05-06T05:28:15.060Z,6.00
2019-05-06T05:30:43.539Z,6.00
2019-05-06T05:33:12.489Z,6.10
2019-05-06T05:35:43.090Z,6.10
2019-05-06T05:38:13.077Z,6.20
2019-05-06T05:40:42.983Z,6.20
2019-05-06T05:43:22.868Z,6.20
2019-05-06T05:45:52.324Z,6.20
2019-05-06T05:48:38.834Z,6.30
2019-05-06T05:51:07.628Z,6.40
2019-05-06T05:53:36.429Z,6.40
2019-05-06T05:56:06.891Z,6.50
2019-05-06T05:58:35.426Z,6.60
2019-05-06T06:01:04.448Z,6.60
2019-05-06T06:03:33.097Z,6.70
2019-05-06T06:06:03.029Z,6.70
2019-05-06T06:08:32.323Z,6.80
2019-05-06T06:11:04.327Z,6.80
2019-05-06T06:13:33.439Z,6.90
2019-05-06T06:16:04.870Z,6.90
2019-05-06T06:18:43.179Z,7.00
2019-05-06T06:21:28.176Z,7.00
2019-05-06T06:24:13.379Z,7.00
2019-05-06T06:26:42.942Z,7.10
2019-05-06T06:29:12.480Z,7.20
2019-05-06T06:32:03.165Z,7.20
2019-05-06T06:34:36.518Z,7.30
2019-05-06T06:37:19.358Z,7.30
2019-05-06T06:39:50.021Z,7.30
2019-05-06T06:42:18.635Z,7.40
2019-05-06T06:44:47.132Z,7.40
2019-05-06T06:47:16.700Z,7.50
2019-05-06T06:50:02.859Z,7.50
2019-05-06T06:52:32.626Z,7.60
2019-05-06T06:55:02.362Z,7.70
2019-05-06T06:57:34.498Z,7.70
2019-05-06T07:00:17.877Z,7.70
2019-05-06T07:02:48.027Z,7.70
2019-05-06T07:05:28.146Z,7.70
2019-05-06T07:07:54.730Z,7.70
2019-05-06T07:10:42.916Z,7.70
2019-05-06T07:13:14.760Z,7.70
2019-05-06T07:15:43.834Z,7.80
2019-05-06T07:18:13.661Z,7.80
2019-05-06T07:20:47.827Z,7.70
2019-05-06T07:23:27.228Z,7.70
2019-05-06T07:25:56.174Z,7.70
2019-05-06T07:28:26.666Z,7.60
2019-05-06T07:30:56.322Z,7.60
2019-05-06T07:33:25.199Z,7.60
2019-05-06T07:35:55.109Z,7.70
2019-05-06T07:38:23.905Z,7.70
2019-05-06T07:41:04.661Z,7.80
2019-05-06T07:43:48.927Z,7.90
2019-05-06T07:46:26.015Z,7.90
2019-05-06T07:48:55.888Z,7.90
2019-05-06T07:51:24.338Z,8.00
2019-05-06T07:53:53.173Z,8.00
2019-05-06T07:56:22.987Z,8.00
2019-05-06T07:58:53.212Z,8.00
2019-05-06T08:01:25.865Z,8.00
2019-05-06T08:03:53.282Z,7.90
2019-05-06T08:06:22.670Z,7.80
2019-05-06T08:08:53.669Z,7.80
2019-05-06T08:11:23.283Z,7.80
2019-05-06T08:13:52.799Z,7.90
2019-05-06T08:16:22.628Z,7.90
2019-05-06T08:18:52.493Z,7.90
2019-05-06T08:21:23.845Z,7.90
2019-05-06T08:23:54.263Z,7.90
2019-05-06T08:26:22.763Z,8.00
2019-05-06T08:28:52.720Z,8.00
2019-05-06T08:31:22.589Z,7.90
2019-05-06T08:33:52.761Z,7.90
2019-05-06T08:36:34.966Z,7.80
2019-05-06T08:39:05.251Z,7.70
2019-05-06T08:41:35.670Z,7.50
2019-05-06T08:44:04.541Z,7.50
2019-05-06T08:46:33.654Z,7.40
2019-05-06T08:49:03.237Z,7.40
2019-05-06T08:51:49.628Z,7.40
2019-05-06T08:54:36.602Z,7.20
2019-05-06T08:57:05.445Z,7.10
2019-05-06T08:59:34.144Z,7.00
2019-05-06T09:02:03.566Z,6.90
2019-05-06T09:04:32.247Z,7.00
2019-05-06T09:07:02.975Z,7.00
2019-05-06T09:09:32.552Z,7.10
2019-05-06T09:12:02.628Z,7.10
2019-05-06T09:14:32.662Z,7.20
2019-05-06T09:17:02.790Z,7.20
2019-05-06T09:19:33.158Z,7.20
2019-05-06T09:22:02.574Z,7.20
2019-05-06T09:24:32.138Z,7.30
2019-05-06T09:27:02.979Z,7.30
2019-05-06T09:29:33.236Z,7.30
2019-05-06T09:32:09.819Z,7.40
2019-05-06T09:34:43.317Z,7.40
2019-05-06T09:37:14.062Z,7.50
2019-05-06T09:39:45.354Z,7.50
2019-05-06T09:42:14.877Z,7.50
2019-05-06T09:44:45.421Z,7.50
2019-05-06T09:47:25.482Z,7.60
2019-05-06T09:49:54.215Z,7.70
2019-05-06T09:52:24.266Z,7.80
2019-05-06T09:54:54.499Z,7.90
2019-05-06T09:57:25.118Z,7.90
2019-05-06T09:59:53.702Z,7.90
2019-05-06T10:02:23.159Z,8.00
2019-05-06T10:04:52.285Z,8.00
2019-05-06T10:07:22.552Z,8.00
2019-05-06T10:09:52.605Z,8.00
2019-05-06T10:12:21.481Z,8.10
2019-05-06T10:14:52.545Z,8.20
2019-05-06T10:17:20.812Z,8.20
2019-05-06T10:19:49.348Z,8.20
2019-05-06T10:22:17.805Z,8.20
2019-05-06T10:24:46.631Z,8.40
2019-05-06T10:27:16.598Z,8.70
2019-05-06T10:29:52.063Z,8.90
2019-05-06T10:32:34.573Z,9.20
2019-05-06T10:35:03.463Z,9.40
2019-05-06T10:37:35.005Z,9.60
2019-05-06T10:40:23.347Z,9.90
2019-05-06T10:42:57.673Z,10.20
2019-05-06T10:45:32.405Z,10.70
2019-05-06T10:48:02.337Z,11.10
2019-05-06T10:50:32.728Z,11.40
2019-05-06T10:53:05.577Z,11.30
2019-05-06T10:55:34.147Z,11.20
2019-05-06T10:58:02.862Z,11.10
2019-05-06T11:00:33.153Z,11.10
2019-05-06T11:03:15.574Z,11.20
2019-05-06T11:05:44.583Z,11.20
2019-05-06T11:08:13.209Z,11.20
2019-05-06T11:10:45.170Z,11.30
2019-05-06T11:13:12.946Z,11.30
2019-05-06T11:15:43.375Z,11.10
2019-05-06T11:18:17.019Z,11.00
2019-05-06T11:20:45.634Z,11.10
2019-05-06T11:23:14.538Z,11.00
2019-05-06T11:25:43.569Z,10.90
2019-05-06T11:28:34.884Z,10.90
2019-05-06T11:31:02.658Z,10.90
2019-05-06T11:33:49.262Z,11.00
2019-05-06T11:36:37.705Z,11.10
2019-05-06T11:39:07.826Z,11.10
2019-05-06T11:41:36.823Z,11.20
2019-05-06T11:44:08.908Z,11.30
2019-05-06T11:46:35.853Z,11.40
2019-05-06T11:49:04.543Z,11.60
2019-05-06T11:51:33.722Z,11.60
2019-05-06T11:54:04.431Z,11.70
2019-05-06T11:56:47.539Z,11.80
2019-05-06T11:59:03.438Z,11.90
2019-05-06T12:01:33.998Z,12.10
2019-05-06T12:04:03.305Z,11.90
2019-05-06T12:06:33.000Z,11.90
2019-05-06T12:09:06.513Z,11.90
2019-05-06T12:11:32.284Z,11.90
2019-05-06T12:14:02.553Z,11.90
2019-05-06T12:16:33.074Z,11.70
2019-05-06T12:19:02.833Z,11.60
2019-05-06T12:21:32.948Z,11.60
2019-05-06T12:24:02.931Z,11.60
2019-05-06T12:26:32.328Z,11.60
2019-05-06T12:29:02.368Z,11.60
2019-05-06T12:31:32.801Z,11.70
2019-05-06T12:34:02.717Z,11.70
2019-05-06T12:36:32.524Z,11.80
2019-05-06T12:39:17.129Z,11.80
2019-05-06T12:42:05.153Z,11.60
2019-05-06T12:44:35.786Z,11.50
2019-05-06T12:47:15.034Z,11.20
2019-05-06T12:49:43.829Z,11.00
2019-05-06T12:52:14.444Z,10.80
2019-05-06T12:54:43.197Z,10.70
2019-05-06T12:57:13.390Z,10.60
2019-05-06T12:59:42.569Z,10.40
2019-05-06T13:02:14.047Z,10.40
2019-05-06T13:04:55.258Z,10.30
2019-05-06T13:07:15.049Z,10.40
2019-05-06T13:09:45.456Z,10.50
2019-05-06T13:12:15.731Z,10.50
2019-05-06T13:14:44.270Z,10.50
2019-05-06T13:17:14.497Z,10.50
2019-05-06T13:19:43.051Z,10.50
2019-05-06T13:22:13.587Z,10.50
2019-05-06T13:24:42.560Z,10.60
2019-05-06T13:27:13.053Z,10.60
2019-05-06T13:29:42.893Z,10.60
2019-05-06T13:32:13.485Z,10.50
2019-05-06T13:34:42.531Z,10.40
2019-05-06T13:37:12.880Z,10.30
2019-05-06T13:39:43.575Z,10.10
2019-05-06T13:42:13.421Z,10.00
2019-05-06T13:44:42.517Z,9.90
2019-05-06T13:47:13.249Z,9.90
2019-05-06T13:49:52.054Z,9.80
2019-05-06T13:52:22.808Z,9.80
2019-05-06T13:54:52.985Z,9.70
2019-05-06T13:57:21.656Z,9.70
2019-05-06T13:59:52.989Z,9.80
2019-05-06T14:02:28.297Z,9.80
2019-05-06T14:04:57.074Z,9.80
2019-05-06T14:07:25.917Z,9.70
2019-05-06T14:09:54.782Z,9.70
2019-05-06T14:12:23.313Z,9.80
2019-05-06T14:14:52.733Z,9.80
2019-05-06T14:17:22.458Z,9.90
2019-05-06T14:19:53.416Z,9.90
2019-05-06T14:22:23.520Z,9.90
2019-05-06T14:24:54.359Z,10.00
2019-05-06T14:27:22.880Z,10.10
2019-05-06T14:29:53.441Z,10.20
2019-05-06T14:32:23.740Z,10.20
2019-05-06T14:34:52.578Z,10.30
2019-05-06T14:37:22.641Z,10.30
2019-05-06T14:39:58.871Z,10.40
2019-05-06T14:42:23.100Z,10.40
2019-05-06T14:44:51.900Z,10.50
2019-05-06T14:47:23.326Z,10.50
2019-05-06T14:49:52.996Z,10.60
2019-05-06T14:52:22.741Z,10.60
2019-05-06T14:54:54.021Z,10.70
2019-05-06T14:57:24.857Z,10.80
2019-05-06T14:59:55.693Z,10.90
2019-05-06T15:02:27.233Z,11.00
2019-05-06T15:04:55.913Z,11.10
2019-05-06T15:07:24.388Z,11.30
2019-05-06T15:10:02.551Z,11.30
2019-05-06T15:12:23.482Z,11.30
2019-05-06T15:14:52.736Z,11.20
2019-05-06T15:17:22.932Z,11.10
2019-05-06T15:19:54.189Z,11.20
2019-05-06T15:22:22.898Z,11.30
2019-05-06T15:24:53.536Z,11.40
2019-05-06T15:27:22.817Z,11.50
2019-05-06T15:29:55.185Z,11.60
2019-05-06T15:32:31.182Z,11.60
2019-05-06T15:35:17.273Z,11.50
2019-05-06T15:37:50.167Z,11.60
2019-05-06T15:40:32.154Z,11.60
2019-05-06T15:42:53.170Z,11.60
2019-05-06T15:45:21.968Z,11.60
2019-05-06T15:47:52.286Z,11.60
2019-05-06T15:50:23.116Z,11.60
2019-05-06T15:52:53.902Z,11.60
2019-05-06T15:55:22.597Z,11.50
2019-05-06T16:00:22.613Z,11.50
2019-05-06T16:02:53.419Z,11.50
2019-05-06T16:05:26.395Z,11.40
2019-05-06T16:07:55.389Z,11.40
2019-05-06T16:10:24.606Z,11.30
2019-05-06T16:12:53.718Z,11.30
2019-05-06T16:15:24.758Z,11.30
2019-05-06T16:17:54.319Z,11.20
2019-05-06T16:20:23.886Z,11.20
2019-05-06T16:22:54.062Z,11.20
2019-05-06T16:25:25.368Z,11.10
2019-05-06T16:27:58.546Z,11.10
2019-05-06T16:30:27.871Z,11.10
2019-05-06T16:32:59.243Z,11.10
2019-05-06T16:35:29.070Z,11.10
2019-05-06T16:37:57.533Z,11.20
2019-05-06T16:40:26.429Z,11.20
2019-05-06T16:42:54.981Z,11.30
2019-05-06T16:45:23.691Z,11.30
2019-05-06T16:47:52.548Z,11.40
2019-05-06T16:50:23.556Z,11.50
2019-05-06T16:52:52.789Z,11.50
2019-05-06T16:55:24.371Z,11.50
2019-05-06T16:58:02.403Z,11.50
2019-05-06T17:00:34.558Z,11.50
2019-05-06T17:03:04.697Z,11.50
2019-05-06T17:05:37.860Z,11.50
2019-05-06T17:08:06.793Z,11.50
2019-05-06T17:10:35.697Z,11.50
2019-05-06T17:13:04.290Z,11.50
2019-05-06T17:15:33.077Z,11.50
2019-05-06T17:18:03.114Z,11.50
2019-05-06T17:20:32.740Z,11.50
2019-05-06T17:23:02.838Z,11.40
2019-05-06T17:25:34.033Z,11.40
2019-05-06T17:28:04.240Z,11.40
2019-05-06T17:30:37.941Z,11.40
2019-05-06T17:33:29.244Z,11.40
2019-05-06T17:35:58.124Z,11.40
2019-05-06T17:38:28.231Z,11.30
2019-05-06T17:40:56.695Z,11.30
2019-05-06T17:43:25.589Z,11.30
2019-05-06T17:46:02.900Z,11.30
2019-05-06T17:48:36.271Z,11.30
2019-05-06T17:51:13.649Z,11.30
2019-05-06T17:53:45.545Z,11.30
2019-05-06T17:56:14.363Z,11.20
2019-05-06T17:58:44.033Z,11.20
2019-05-06T18:01:16.610Z,11.20
2019-05-06T18:03:45.145Z,11.20
2019-05-06T18:06:14.416Z,11.10
2019-05-06T18:08:43.801Z,11.00
2019-05-06T18:11:12.939Z,11.00
2019-05-06T18:13:42.368Z,10.90
2019-05-06T18:16:13.022Z,10.90
2019-05-06T18:18:43.212Z,10.90
2019-05-06T18:21:14.293Z,10.80
2019-05-06T18:23:43.046Z,10.80
2019-05-06T18:26:13.206Z,10.70
2019-05-06T18:28:43.134Z,10.60
2019-05-06T18:31:12.589Z,10.50
2019-05-06T18:33:43.660Z,10.40
2019-05-06T18:36:14.620Z,10.30
2019-05-06T18:38:43.488Z,10.30
2019-05-06T18:41:12.598Z,10.20
2019-05-06T18:43:42.256Z,10.10
2019-05-06T18:46:12.151Z,10.10
2019-05-06T18:48:42.711Z,10.00
2019-05-06T18:51:12.618Z,10.00
2019-05-06T18:53:42.877Z,9.90
2019-05-06T18:56:16.732Z,9.90
2019-05-06T18:58:49.774Z,9.90
2019-05-06T19:01:23.264Z,9.90
2019-05-06T19:03:55.703Z,9.90
2019-05-06T19:06:24.164Z,10.00
2019-05-06T19:09:02.441Z,9.90
2019-05-06T19:11:32.518Z,9.90
2019-05-06T19:14:02.114Z,9.80
2019-05-06T19:16:47.679Z,9.80
2019-05-06T19:19:03.801Z,9.80
2019-05-06T19:21:32.591Z,9.80
2019-05-06T19:24:02.960Z,9.90
2019-05-06T19:26:32.318Z,9.90
2019-05-06T19:29:04.362Z,9.90
2019-05-06T19:31:32.633Z,9.90
2019-05-06T19:34:03.225Z,9.90
2019-05-06T19:36:34.155Z,9.90
2019-05-06T19:39:02.337Z,9.90
2019-05-06T19:41:33.196Z,10.00
2019-05-06T19:44:02.540Z,10.00
2019-05-06T19:46:32.696Z,9.90
2019-05-06T19:49:01.960Z,9.90
2019-05-06T19:51:32.850Z,9.90
2019-05-06T19:54:02.230Z,9.90
2019-05-06T19:56:31.145Z,9.90
2019-05-06T19:58:59.593Z,9.90
2019-05-06T20:01:28.276Z,9.80
2019-05-06T20:03:58.670Z,9.80
2019-05-06T20:06:35.166Z,9.70
2019-05-06T20:09:17.075Z,9.70
2019-05-06T20:11:47.014Z,9.70
2019-05-06T20:14:15.681Z,9.70
2019-05-06T20:16:44.543Z,9.70
2019-05-06T20:19:29.749Z,9.70
2019-05-06T20:21:45.926Z,9.60
2019-05-06T20:24:14.667Z,9.60
2019-05-06T20:26:43.213Z,9.60
2019-05-06T20:29:16.234Z,9.50
2019-05-06T20:31:45.782Z,9.50
2019-05-06T20:34:15.262Z,9.40
2019-05-06T20:36:44.136Z,9.30
2019-05-06T20:39:12.967Z,9.30
2019-05-06T20:41:42.501Z,9.30
2019-05-06T20:44:12.360Z,9.20
2019-05-06T20:46:42.934Z,9.20
2019-05-06T20:49:13.216Z,9.20
2019-05-06T20:51:42.430Z,9.20
2019-05-06T20:54:12.957Z,9.30
2019-05-06T20:56:42.156Z,9.30
2019-05-06T20:59:12.168Z,9.30
2019-05-06T21:01:42.594Z,9.30
2019-05-06T21:04:13.104Z,9.30
2019-05-06T21:06:42.625Z,9.30
2019-05-06T21:09:12.458Z,9.30
2019-05-06T21:11:42.142Z,9.20
2019-05-06T21:14:13.072Z,9.20
2019-05-06T21:16:42.249Z,9.20
2019-05-06T21:19:22.223Z,9.20
2019-05-06T21:21:57.653Z,9.20
2019-05-06T21:24:28.498Z,9.20
2019-05-06T21:26:59.399Z,9.20
2019-05-06T21:29:32.484Z,9.20
2019-05-06T21:32:02.697Z,9.20
2019-05-06T21:34:43.786Z,9.20
2019-05-06T21:37:15.241Z,9.10
2019-05-06T21:39:48.123Z,9.10
2019-05-06T21:42:32.548Z,9.10
2019-05-06T21:45:06.564Z,9.10
2019-05-06T21:47:46.381Z,9.00
2019-05-06T21:50:29.835Z,9.00
2019-05-06T21:53:03.428Z,8.90
2019-05-06T21:55:33.109Z,8.90
2019-05-06T21:58:02.355Z,8.90
2019-05-06T22:00:38.849Z,8.90
2019-05-06T22:03:07.851Z,8.90
2019-05-06T22:05:39.305Z,8.90
2019-05-06T22:08:07.884Z,8.90
2019-05-06T22:10:36.330Z,8.90
2019-05-06T22:13:07.562Z,8.90
2019-05-06T22:15:38.682Z,8.80
2019-05-06T22:18:07.537Z,8.70
2019-05-06T22:20:54.577Z,8.70
2019-05-06T22:23:23.567Z,8.70
2019-05-06T22:25:52.066Z,8.70
2019-05-06T22:28:23.962Z,8.60
2019-05-06T22:30:52.741Z,8.60
2019-05-06T22:33:24.690Z,8.50
2019-05-06T22:35:54.902Z,8.50
2019-05-06T22:38:23.502Z,8.50
2019-05-06T22:40:52.995Z,8.50
2019-05-06T22:43:22.012Z,8.50
2019-05-06T22:45:53.185Z,8.50
2019-05-06T22:48:23.861Z,8.60
2019-05-06T22:50:53.100Z,8.50
2019-05-06T22:53:24.903Z,8.50
2019-05-06T22:55:55.167Z,8.50
2019-05-06T22:58:23.967Z,8.50
2019-05-06T23:00:56.593Z,8.50
2019-05-06T23:03:26.840Z,8.50
2019-05-06T23:05:55.396Z,8.50
2019-05-06T23:08:26.767Z,8.50
2019-05-06T23:10:56.042Z,8.40
2019-05-06T23:13:24.526Z,8.40
2019-05-06T23:15:53.346Z,8.40
2019-05-06T23:18:22.293Z,8.30
2019-05-06T23:20:52.718Z,8.30
2019-05-06T23:23:22.227Z,8.20
2019-05-06T23:26:09.096Z,8.20
2019-05-06T23:28:37.532Z,8.30
2019-05-06T23:31:07.542Z,8.30
2019-05-06T23:33:37.259Z,8.30
2019-05-06T23:36:05.976Z,8.30
2019-05-06T23:39:12.665Z,8.20
2019-05-06T23:42:19.046Z,8.20
2019-05-06T23:45:24.286Z,8.20
2019-05-06T23:48:29.495Z,8.10
2019-05-06T23:51:34.655Z,8.10
2019-05-06T23:54:39.946Z,8.10
2019-05-06T23:57:07.750Z,8.00
2019-05-06T23:59:36.536Z,8.00
